createdAt,value
2023-04-13T00:00:11.425Z,3.20
2023-04-13T00:02:40.022Z,3.00
2023-04-13T00:05:12.052Z,3.53
2023-04-13T00:07:40.596Z,2.90
2023-04-13T00:10:10.639Z,6.43
2023-04-13T00:12:38.948Z,2.75
2023-04-13T00:15:07.918Z,1.92
2023-04-13T00:17:35.938Z,1.58
2023-04-13T00:20:08.596Z,2.38
2023-04-13T00:22:38.150Z,2.38
2023-04-13T00:25:07.000Z,3.15
2023-04-13T00:27:35.120Z,1.67
2023-04-13T00:30:03.541Z,2.22
2023-04-13T00:32:31.489Z,4.20
2023-04-13T00:34:59.484Z,3.00
2023-04-13T00:37:29.225Z,2.72
2023-04-13T00:39:59.138Z,2.90
2023-04-13T00:42:27.663Z,5.28
2023-04-13T00:44:55.758Z,3.53
2023-04-13T00:47:28.596Z,2.00
2023-04-13T00:49:58.208Z,1.95
2023-04-13T00:52:26.368Z,2.33
2023-04-13T00:54:56.338Z,2.88
2023-04-13T00:57:27.189Z,3.50
2023-04-13T00:59:55.824Z,8.88
2023-04-13T01:02:25.771Z,1.90
2023-04-13T01:04:55.822Z,1.48
2023-04-13T01:07:28.965Z,1.80
2023-04-13T01:10:06.944Z,2.78
2023-04-13T01:12:47.082Z,3.58
2023-04-13T01:15:17.763Z,4.28
2023-04-13T01:17:52.215Z,1.98
2023-04-13T01:20:21.405Z,3.65
2023-04-13T01:22:55.755Z,1.00
2023-04-13T01:25:38.809Z,4.22
2023-04-13T01:28:10.386Z,3.55
2023-04-13T01:30:39.909Z,1.97
2023-04-13T01:33:08.782Z,1.50
2023-04-13T01:35:38.078Z,1.30
2023-04-13T01:38:08.761Z,5.35
2023-04-13T01:40:41.197Z,2.30
2023-04-13T01:43:10.566Z,1.42
2023-04-13T01:45:48.352Z,2.38
2023-04-13T01:48:21.218Z,2.05
2023-04-13T01:50:53.320Z,3.53
2023-04-13T01:53:24.703Z,4.32
2023-04-13T01:55:53.173Z,4.00
2023-04-13T01:58:27.785Z,1.50
2023-04-13T02:00:59.394Z,1.38
2023-04-13T02:03:28.767Z,3.70
2023-04-13T02:05:56.748Z,3.10
2023-04-13T02:08:24.732Z,4.13
2023-04-13T02:10:52.753Z,2.38
2023-04-13T02:13:22.024Z,2.17
2023-04-13T02:15:50.456Z,4.80
2023-04-13T02:18:18.508Z,3.67
2023-04-13T02:20:46.445Z,2.95
2023-04-13T02:23:15.755Z,4.05
2023-04-13T02:25:49.044Z,5.28
2023-04-13T02:28:17.705Z,3.20
2023-04-13T02:30:48.042Z,4.53
2023-04-13T02:33:16.922Z,6.57
2023-04-13T02:35:45.451Z,4.35
2023-04-13T02:38:15.762Z,5.35
2023-04-13T02:40:44.054Z,2.10
2023-04-13T02:43:12.265Z,3.55
2023-04-13T02:45:40.723Z,7.28
2023-04-13T02:48:10.494Z,5.70
2023-04-13T02:50:38.525Z,7.88
2023-04-13T02:53:07.758Z,4.28
2023-04-13T02:55:36.580Z,1.73
2023-04-13T02:58:06.342Z,6.57
2023-04-13T03:00:34.597Z,4.97
2023-04-13T03:03:03.835Z,1.65
2023-04-13T03:05:33.606Z,5.60
2023-04-13T03:08:02.398Z,2.25
2023-04-13T03:10:31.742Z,4.30
2023-04-13T03:12:59.934Z,6.15
2023-04-13T03:15:27.848Z,4.10
2023-04-13T03:17:55.842Z,2.28
2023-04-13T03:20:24.216Z,4.32
2023-04-13T03:22:55.301Z,4.78
2023-04-13T03:25:23.174Z,1.80
2023-04-13T03:27:51.724Z,1.25
2023-04-13T03:30:19.662Z,6.25
2023-04-13T03:32:47.609Z,3.22
2023-04-13T03:35:15.712Z,9.15
2023-04-13T03:37:44.929Z,2.72
2023-04-13T03:40:14.385Z,2.72
2023-04-13T03:42:42.438Z,3.45
2023-04-13T03:45:11.708Z,2.58
2023-04-13T03:47:40.119Z,3.10
2023-04-13T03:50:08.857Z,4.38
2023-04-13T03:52:36.846Z,6.85
2023-04-13T03:55:05.259Z,1.48
2023-04-13T03:57:35.134Z,3.47
2023-04-13T04:00:03.604Z,2.65
2023-04-13T04:02:31.640Z,1.65
2023-04-13T04:05:00.295Z,4.57
2023-04-13T04:07:28.367Z,2.28
2023-04-13T04:09:56.273Z,3.70
2023-04-13T04:12:24.192Z,3.13
2023-04-13T04:14:53.526Z,2.38
2023-04-13T04:17:21.473Z,2.97
2023-04-13T04:19:49.853Z,3.78
2023-04-13T04:22:17.688Z,1.10
2023-04-13T04:25:29.685Z,5.60
2023-04-13T04:28:05.326Z,5.53
2023-04-13T04:34:10.370Z,6.68
2023-04-13T04:37:03.222Z,1.45
2023-04-13T04:40:04.621Z,2.50
2023-04-13T04:43:43.739Z,5.65
2023-04-13T04:47:12.335Z,2.05
2023-04-13T04:50:11.744Z,6.05
2023-04-13T04:53:17.547Z,2.83
2023-04-13T04:56:10.471Z,8.25
2023-04-13T04:59:41.592Z,6.53
2023-04-13T05:02:23.529Z,5.40
2023-04-13T05:05:16.285Z,4.53
2023-04-13T05:08:32.758Z,3.42
2023-04-13T05:11:43.526Z,3.42
2023-04-13T05:14:11.709Z,8.43
2023-04-13T05:16:42.618Z,6.43
2023-04-13T05:19:10.662Z,2.15
2023-04-13T05:21:40.068Z,5.45
2023-04-13T05:24:08.572Z,9.75
2023-04-13T05:26:36.478Z,10.93
2023-04-13T05:29:06.838Z,5.53
2023-04-13T05:31:34.917Z,4.03
2023-04-13T05:34:02.985Z,5.20
2023-04-13T05:36:32.207Z,7.95
2023-04-13T05:39:04.450Z,3.88
2023-04-13T05:41:33.760Z,3.88
2023-04-13T05:44:01.824Z,6.13
2023-04-13T05:46:29.717Z,6.47
2023-04-13T05:48:59.833Z,5.25
2023-04-13T05:51:30.756Z,5.05
2023-04-13T05:53:58.848Z,14.07
2023-04-13T05:56:29.780Z,1.67
2023-04-13T05:58:58.684Z,4.10
2023-04-13T06:01:29.760Z,1.85
2023-04-13T06:03:58.261Z,6.28
2023-04-13T06:06:26.617Z,3.08
2023-04-13T06:08:55.282Z,6.28
2023-04-13T06:11:24.849Z,6.97
2023-04-13T06:13:54.358Z,8.48
2023-04-13T06:16:23.303Z,6.32
2023-04-13T06:18:51.488Z,2.55
2023-04-13T06:21:19.637Z,4.35
2023-04-13T06:23:48.036Z,7.45
2023-04-13T06:26:17.131Z,6.97
2023-04-13T06:28:45.306Z,7.80
2023-04-13T06:31:14.927Z,2.80
2023-04-13T06:33:43.345Z,5.78
2023-04-13T06:36:11.909Z,7.18
2023-04-13T06:38:40.087Z,5.22
2023-04-13T06:41:08.481Z,5.05
2023-04-13T06:43:37.127Z,10.25
2023-04-13T06:46:05.710Z,6.82
2023-04-13T06:48:35.287Z,4.97
2023-04-13T06:51:03.414Z,3.67
2023-04-13T06:53:31.601Z,11.43
2023-04-13T06:55:59.688Z,10.45
2023-04-13T06:58:27.784Z,7.43
2023-04-13T07:00:56.140Z,5.57
2023-04-13T07:03:24.460Z,5.00
2023-04-13T07:05:54.541Z,7.03
2023-04-13T07:08:22.622Z,10.82
2023-04-13T07:10:54.642Z,5.10
2023-04-13T07:13:22.725Z,7.50
2023-04-13T07:15:50.772Z,4.32
2023-04-13T07:18:18.789Z,9.73
2023-04-13T07:20:47.429Z,9.35
2023-04-13T07:23:16.989Z,4.93
2023-04-13T07:25:44.985Z,10.05
2023-04-13T07:28:13.063Z,5.43
2023-04-13T07:30:44.460Z,6.60
2023-04-13T07:33:13.145Z,5.32
2023-04-13T07:35:41.345Z,6.97
2023-04-13T07:38:09.401Z,9.00
2023-04-13T07:40:38.812Z,7.38
2023-04-13T07:43:06.830Z,6.43
2023-04-13T07:45:34.733Z,6.72
2023-04-13T07:48:03.326Z,9.80
2023-04-13T07:50:31.859Z,6.90
2023-04-13T07:52:59.814Z,6.90
2023-04-13T07:55:27.776Z,7.40
2023-04-13T07:57:59.782Z,14.23
2023-04-13T08:00:27.953Z,7.80
2023-04-13T08:02:56.101Z,7.45
2023-04-13T08:05:24.542Z,7.25
2023-04-13T08:07:52.986Z,10.25
2023-04-13T08:10:21.215Z,9.50
2023-04-13T08:12:49.191Z,10.55
2023-04-13T08:15:18.711Z,8.80
2023-04-13T08:17:46.853Z,6.22
2023-04-13T08:20:16.060Z,6.32
2023-04-13T08:22:45.961Z,12.70
2023-04-13T08:25:13.941Z,6.45
2023-04-13T08:27:41.949Z,7.82
2023-04-13T08:30:11.614Z,8.35
2023-04-13T08:32:41.131Z,3.72
2023-04-13T08:35:10.450Z,4.90
2023-04-13T08:37:39.609Z,6.07
2023-04-13T08:40:10.922Z,8.65
2023-04-13T08:42:39.810Z,4.95
2023-04-13T08:45:09.102Z,9.10
2023-04-13T08:47:37.564Z,9.25
2023-04-13T08:50:09.004Z,8.68
2023-04-13T08:52:37.920Z,9.13
2023-04-13T08:55:06.672Z,5.35
2023-04-13T08:57:36.615Z,8.88
2023-04-13T09:00:11.462Z,5.50
2023-04-13T09:02:46.451Z,8.85
2023-04-13T09:05:27.159Z,4.13
2023-04-13T09:07:58.829Z,6.05
2023-04-13T09:10:27.630Z,5.93
2023-04-13T09:12:55.992Z,4.20
2023-04-13T09:15:24.218Z,4.43
2023-04-13T09:17:52.438Z,10.65
2023-04-13T09:20:22.492Z,4.82
2023-04-13T09:22:52.790Z,6.35
2023-04-13T09:25:22.557Z,2.85
2023-04-13T09:27:54.407Z,4.05
2023-04-13T09:30:29.148Z,4.18
2023-04-13T09:33:08.054Z,3.17
2023-04-13T09:35:37.004Z,1.38
2023-04-13T09:38:15.557Z,7.22
2023-04-13T09:40:53.061Z,2.22
2023-04-13T09:43:21.459Z,2.17
2023-04-13T09:45:49.602Z,4.82
2023-04-13T09:48:20.636Z,2.92
2023-04-13T09:50:59.716Z,3.40
2023-04-13T09:53:40.484Z,3.05
2023-04-13T09:56:08.823Z,14.23
2023-04-13T09:58:42.597Z,2.47
2023-04-13T10:01:11.182Z,3.70
2023-04-13T10:03:39.983Z,2.33
2023-04-13T10:06:23.218Z,6.45
2023-04-13T10:08:53.057Z,2.10
2023-04-13T10:11:21.440Z,1.08
2023-04-13T10:13:51.946Z,5.47
2023-04-13T10:16:44.182Z,3.85
2023-04-13T10:19:14.925Z,4.20
2023-04-13T10:21:47.521Z,4.57
2023-04-13T10:24:17.585Z,3.75
2023-04-13T10:26:45.794Z,4.13
2023-04-13T10:29:14.975Z,4.60
2023-04-13T10:31:46.860Z,3.45
2023-04-13T10:34:25.761Z,4.80
2023-04-13T10:36:56.255Z,7.30
2023-04-13T10:39:30.260Z,2.17
2023-04-13T10:42:02.485Z,4.03
2023-04-13T10:44:42.881Z,3.10
2023-04-13T10:47:11.627Z,4.18
2023-04-13T10:49:41.020Z,4.50
2023-04-13T10:52:11.482Z,3.88
2023-04-13T10:54:42.335Z,5.35
2023-04-13T10:57:11.907Z,2.97
2023-04-13T10:59:57.147Z,3.50
2023-04-13T11:02:27.604Z,5.70
2023-04-13T11:04:55.989Z,5.60
2023-04-13T11:07:26.018Z,5.25
2023-04-13T11:10:02.880Z,4.03
2023-04-13T11:12:31.259Z,7.25
2023-04-13T11:15:00.171Z,3.28
2023-04-13T11:17:28.475Z,4.78
2023-04-13T11:20:24.968Z,4.88
2023-04-13T11:23:12.236Z,4.28
2023-04-13T11:26:52.872Z,2.97
2023-04-13T11:33:07.345Z,2.77
2023-04-13T11:36:03.970Z,5.25
2023-04-13T11:41:57.122Z,1.75
2023-04-13T11:44:52.106Z,7.28
2023-04-13T11:47:59.737Z,3.15
2023-04-13T11:50:43.247Z,4.80
2023-04-13T11:59:45.618Z,8.00
2023-04-13T12:02:46.893Z,5.40
2023-04-13T12:09:15.747Z,5.68
2023-04-13T12:12:50.659Z,5.00
2023-04-13T12:15:45.746Z,2.80
2023-04-13T12:18:52.351Z,3.75
2023-04-13T12:21:39.999Z,1.92
2023-04-13T12:27:46.739Z,4.40
2023-04-13T12:33:18.369Z,7.40
2023-04-13T12:36:10.032Z,2.95
2023-04-13T12:39:10.142Z,2.90
2023-04-13T12:42:08.483Z,3.83
2023-04-13T12:45:03.783Z,2.78
2023-04-13T12:47:50.577Z,3.30
2023-04-13T12:50:36.623Z,4.30
2023-04-13T12:53:21.593Z,5.95
2023-04-13T12:55:55.334Z,5.13
2023-04-13T13:02:30.675Z,5.15
2023-04-13T13:05:21.622Z,2.22
2023-04-13T13:08:14.231Z,2.38
2023-04-13T13:11:34.178Z,3.10
2023-04-13T13:14:54.881Z,2.22
2023-04-13T13:17:46.179Z,2.67
2023-04-13T13:20:46.628Z,3.95
2023-04-13T13:27:58.376Z,3.08
2023-04-13T13:30:19.863Z,2.10
2023-04-13T13:33:37.650Z,2.58
2023-04-13T13:36:07.559Z,3.55
2023-04-13T13:38:36.777Z,4.32
2023-04-13T13:41:05.026Z,2.50
2023-04-13T13:43:34.401Z,3.55
2023-04-13T13:46:02.444Z,3.58
2023-04-13T13:48:33.003Z,3.30
2023-04-13T13:51:02.036Z,5.90
2023-04-13T13:53:30.078Z,3.95
2023-04-13T13:56:23.175Z,3.85
2023-04-13T13:59:03.552Z,4.22
2023-04-13T14:05:14.668Z,10.10
2023-04-13T14:08:04.145Z,5.90
2023-04-13T14:10:55.251Z,3.97
2023-04-13T14:16:43.246Z,7.28
2023-04-13T14:19:28.548Z,5.10
2023-04-13T14:22:49.846Z,10.48
2023-04-13T14:25:45.980Z,8.07
2023-04-13T14:28:39.259Z,3.63
2023-04-13T14:31:46.379Z,2.63
2023-04-13T14:34:25.988Z,2.78
2023-04-13T14:37:10.200Z,5.15
2023-04-13T14:40:15.794Z,7.85
2023-04-13T14:43:04.787Z,5.28
2023-04-13T14:46:10.379Z,5.30
2023-04-13T14:48:57.951Z,6.72
2023-04-13T14:55:02.375Z,7.80
2023-04-13T14:58:04.284Z,6.15
2023-04-13T15:01:09.732Z,7.20
2023-04-13T15:04:07.532Z,5.78
2023-04-13T15:07:04.262Z,6.13
2023-04-13T15:09:43.203Z,7.53
2023-04-13T15:12:42.355Z,7.18
2023-04-13T15:15:33.793Z,5.30
2023-04-13T15:18:42.914Z,7.13
2023-04-13T15:21:41.054Z,8.40
2023-04-13T15:24:24.845Z,5.38
2023-04-13T15:27:28.791Z,6.70
2023-04-13T15:30:37.939Z,5.53
2023-04-13T15:33:20.392Z,5.05
2023-04-13T15:36:22.396Z,7.97
2023-04-13T15:42:12.494Z,6.40
2023-04-13T15:45:01.507Z,4.38
2023-04-13T15:51:09.324Z,5.20
2023-04-13T15:53:56.313Z,6.43
2023-04-13T15:56:59.106Z,2.55
2023-04-13T15:59:47.990Z,5.15
2023-04-13T16:05:18.988Z,4.05
2023-04-13T16:07:51.770Z,7.00
2023-04-13T16:10:22.353Z,6.32
2023-04-13T16:12:50.833Z,3.92
2023-04-13T16:15:20.295Z,3.75
2023-04-13T16:17:48.327Z,6.85
2023-04-13T16:20:21.202Z,11.25
2023-04-13T16:22:55.189Z,4.22
2023-04-13T16:25:23.851Z,7.40
2023-04-13T16:27:52.436Z,4.47
2023-04-13T16:30:24.408Z,5.80
2023-04-13T16:32:52.383Z,5.80
2023-04-13T16:35:20.782Z,10.88
2023-04-13T16:37:50.082Z,7.97
2023-04-13T16:40:18.822Z,6.18
2023-04-13T16:42:50.118Z,6.07
2023-04-13T16:45:18.006Z,6.13
2023-04-13T16:47:46.315Z,6.65
2023-04-13T16:50:14.284Z,3.85
2023-04-13T16:52:42.386Z,6.50
2023-04-13T16:55:14.973Z,4.15
2023-04-13T16:57:43.777Z,5.63
2023-04-13T17:00:12.923Z,5.05
2023-04-13T17:02:42.152Z,3.45
2023-04-13T17:05:11.417Z,3.95
2023-04-13T17:07:40.546Z,7.53
2023-04-13T17:10:12.495Z,8.45
2023-04-13T17:12:41.152Z,4.47
2023-04-13T17:15:10.439Z,5.65
2023-04-13T17:17:38.881Z,4.95
2023-04-13T17:20:08.310Z,6.65
2023-04-13T17:22:36.435Z,3.92
2023-04-13T17:25:04.497Z,5.50
2023-04-13T17:27:33.953Z,3.17
2023-04-13T17:30:02.057Z,4.75
2023-04-13T17:32:30.088Z,8.20
2023-04-13T17:35:01.365Z,4.30
2023-04-13T17:37:31.996Z,5.70
2023-04-13T17:40:01.006Z,4.40
2023-04-13T17:42:29.089Z,10.07
2023-04-13T17:45:01.722Z,7.82
2023-04-13T17:47:29.636Z,7.57
2023-04-13T17:49:57.544Z,12.85
2023-04-13T17:53:15.619Z,8.93
2023-04-13T17:56:00.512Z,6.68
2023-04-13T17:58:31.138Z,9.80
2023-04-13T18:05:28.120Z,14.98
2023-04-13T18:14:38.430Z,4.82
2023-04-13T18:17:37.730Z,9.45
2023-04-13T18:20:24.332Z,8.52
2023-04-13T18:23:04.413Z,5.93
2023-04-13T18:25:54.976Z,6.40
2023-04-13T18:28:46.835Z,6.32
2023-04-13T18:31:31.727Z,6.20
2023-04-13T18:34:38.945Z,6.90
2023-04-13T18:37:36.773Z,5.70
2023-04-13T18:40:24.019Z,7.95
2023-04-13T18:43:14.198Z,5.97
2023-04-13T18:46:14.203Z,4.95
2023-04-13T18:49:06.576Z,8.63
2023-04-13T18:52:35.197Z,8.90
2023-04-13T18:55:37.187Z,8.73
2023-04-13T18:58:30.645Z,6.72
2023-04-13T19:01:46.906Z,7.22
2023-04-13T19:05:05.528Z,5.53
2023-04-13T19:12:38.891Z,9.07
2023-04-13T19:15:35.348Z,14.35
2023-04-13T19:21:21.952Z,6.78
2023-04-13T19:31:19.304Z,11.25
2023-04-13T19:34:48.057Z,10.98
2023-04-13T19:37:51.985Z,7.93
2023-04-13T19:41:05.338Z,19.23
2023-04-13T19:44:05.689Z,9.50
2023-04-13T19:53:38.362Z,15.57
2023-04-13T19:56:56.392Z,15.57
2023-04-13T19:59:51.405Z,10.95
2023-04-13T20:02:47.365Z,9.35
2023-04-13T20:05:56.484Z,24.25
2023-04-13T20:09:11.085Z,10.13
2023-04-13T20:12:05.863Z,10.05
2023-04-13T20:15:04.720Z,17.30
2023-04-13T20:18:00.606Z,17.88
2023-04-13T20:21:17.640Z,17.50
2023-04-13T20:24:13.404Z,20.23
2023-04-13T20:27:20.604Z,16.05
2023-04-13T20:30:29.755Z,18.50
2023-04-13T20:34:04.260Z,14.15
2023-04-13T20:51:20.637Z,11.75
2023-04-13T21:00:54.065Z,13.88
2023-04-13T21:08:00.373Z,12.32
2023-04-13T21:11:14.683Z,18.25
2023-04-13T21:14:27.678Z,18.30
2023-04-13T21:17:15.780Z,12.57
2023-04-13T21:20:33.452Z,14.82
2023-04-13T21:27:03.152Z,9.15
2023-04-13T21:29:59.747Z,15.77
2023-04-13T21:33:18.892Z,14.10
2023-04-13T21:39:31.255Z,14.63
2023-04-13T21:42:43.021Z,15.25
2023-04-13T21:46:13.224Z,14.65
2023-04-13T21:49:22.851Z,10.75
2023-04-13T21:52:25.392Z,13.98
2023-04-13T21:55:32.656Z,11.65
2023-04-13T21:59:10.041Z,10.80
2023-04-13T22:02:24.000Z,16.02
2023-04-13T22:05:19.910Z,24.77
2023-04-13T22:08:30.105Z,14.10
2023-04-13T22:11:37.764Z,13.40
2023-04-13T22:14:43.001Z,16.00
2023-04-13T22:18:01.261Z,12.57
2023-04-13T22:20:53.493Z,11.93
2023-04-13T22:23:47.042Z,16.80
2023-04-13T22:26:49.747Z,14.85
2023-04-13T22:29:38.335Z,13.60
2023-04-13T22:32:27.066Z,13.95
2023-04-13T22:38:20.964Z,13.88
2023-04-13T22:41:22.773Z,14.88
2023-04-13T22:44:09.795Z,16.83
2023-04-13T22:46:52.280Z,13.80
2023-04-13T22:49:29.940Z,13.57
2023-04-13T22:52:01.473Z,12.05
2023-04-13T22:54:49.712Z,13.60
2023-04-13T22:57:17.610Z,12.65
2023-04-13T22:59:47.317Z,16.45
2023-04-13T23:02:15.524Z,13.55
2023-04-13T23:04:43.554Z,14.57
2023-04-13T23:07:11.582Z,17.08
2023-04-13T23:09:39.539Z,16.45
2023-04-13T23:12:07.773Z,14.70
2023-04-13T23:14:35.671Z,17.25
2023-04-13T23:17:04.926Z,13.63
2023-04-13T23:19:32.814Z,15.57
2023-04-13T23:22:00.846Z,17.33
2023-04-13T23:24:28.989Z,17.15
2023-04-13T23:26:57.883Z,16.98
2023-04-13T23:29:25.936Z,19.00
2023-04-13T23:31:57.052Z,16.17
2023-04-13T23:34:26.365Z,13.93
2023-04-13T23:36:54.272Z,13.75
2023-04-13T23:39:23.030Z,15.00
2023-04-13T23:42:29.627Z,14.27
2023-04-13T23:49:12.885Z,12.85
2023-04-13T23:52:03.112Z,13.05
2023-04-13T23:55:06.878Z,13.35
2023-04-13T23:57:55.214Z,16.85
